Time;durP1;ratioP1;P1;durP2;ratioP2;P2;SDS_P1;SDS_P2;PMS_P1;PMS_P2;Temp;Humidity;BMP_temperature;BMP_pressure;BME280_temperature;BME280_humidity;BME280_pressure;Samples;Min_cycle;Max_cycle;Signal;HPM_P1;HPM_P2
2023/06/26 00:00:16;;;;;;;10.97;9.97;;;23.90;46.30;;;;;;5058113;28;20172;-55
2023/06/26 00:02:42;;;;;;;9.47;7.27;;;23.90;46.40;;;;;;5058530;28;20197;-53
2023/06/26 00:05:08;;;;;;;10.93;9.30;;;23.80;46.50;;;;;;5058284;28;20411;-54
2023/06/26 00:07:34;;;;;;;11.27;8.53;;;23.80;46.40;;;;;;5058472;28;20251;-55
2023/06/26 00:10:02;;;;;;;8.97;8.17;;;23.80;46.60;;;;;;5058157;28;20664;-53
2023/06/26 00:12:29;;;;;;;8.90;8.10;;;23.80;46.70;;;;;;5058272;28;20446;-54
2023/06/26 00:14:55;;;;;;;8.80;8.00;;;23.80;46.80;;;;;;5058269;28;20545;-55
2023/06/26 00:17:21;;;;;;;9.60;8.70;;;23.80;46.80;;;;;;5058377;28;20513;-55
2023/06/26 00:19:47;;;;;;;9.63;7.70;;;23.70;46.60;;;;;;5058380;28;20189;-54
2023/06/26 00:22:13;;;;;;;9.20;8.23;;;23.70;46.70;;;;;;5058126;28;20780;-55
2023/06/26 00:24:39;;;;;;;10.30;7.80;;;23.70;46.70;;;;;;5057075;28;20418;-53
2023/06/26 00:27:06;;;;;;;9.50;8.70;;;23.80;46.70;;;;;;5056738;28;20233;-54
2023/06/26 00:29:32;;;;;;;9.83;8.90;;;23.80;46.70;;;;;;5056634;28;20830;-53
2023/06/26 00:31:58;;;;;;;10.43;9.47;;;23.70;46.60;;;;;;5058216;28;20408;-54
2023/06/26 00:34:23;;;;;;;10.20;8.43;;;23.70;46.70;;;;;;5056865;28;20196;-55
2023/06/26 00:36:49;;;;;;;9.13;8.23;;;23.60;46.80;;;;;;5057968;28;20423;-53
2023/06/26 00:39:15;;;;;;;9.10;8.30;;;23.60;46.80;;;;;;5057827;28;20162;-55
2023/06/26 00:41:41;;;;;;;8.87;8.07;;;23.60;46.70;;;;;;5058052;28;20244;-54
2023/06/26 00:44:07;;;;;;;13.20;9.27;;;23.60;46.70;;;;;;5058339;28;20499;-55
2023/06/26 00:46:34;;;;;;;11.30;8.87;;;23.50;46.80;;;;;;5057983;28;20962;-55
2023/06/26 00:49:02;;;;;;;9.63;8.67;;;23.50;46.80;;;;;;5053830;28;20880;-54
2023/06/26 00:51:29;;;;;;;8.23;7.27;;;23.50;46.70;;;;;;5054877;28;20451;-55
2023/06/26 00:53:56;;;;;;;9.60;8.60;;;23.50;46.80;;;;;;5054804;28;20506;-55
2023/06/26 00:56:23;;;;;;;9.60;8.70;;;23.40;47.50;;;;;;5054916;28;20809;-54
2023/06/26 00:58:48;;;;;;;9.63;8.57;;;23.40;46.80;;;;;;5054909;28;20416;-55
2023/06/26 01:01:17;;;;;;;10.17;9.17;;;23.40;47.00;;;;;;5054287;28;20461;-55
2023/06/26 01:03:51;;;;;;;7.93;7.13;;;23.30;47.80;;;;;;5054861;28;20177;-54
2023/06/26 01:06:19;;;;;;;8.90;8.00;;;23.30;47.30;;;;;;5054506;28;20914;-56
2023/06/26 01:08:46;;;;;;;9.30;8.27;;;23.20;47.10;;;;;;5054490;28;20503;-56
2023/06/26 01:11:13;;;;;;;8.80;7.90;;;23.20;47.00;;;;;;5054199;28;20823;-54
2023/06/26 01:13:41;;;;;;;10.20;8.53;;;23.20;46.90;;;;;;5054269;28;20466;-54
2023/06/26 01:16:06;;;;;;;9.70;8.80;;;23.20;47.00;;;;;;5054583;28;20424;-56
2023/06/26 01:18:34;;;;;;;9.57;8.67;;;23.20;47.00;;;;;;5054323;28;20423;-54
2023/06/26 01:21:01;;;;;;;8.40;7.53;;;23.20;47.00;;;;;;5054142;28;20921;-54
2023/06/26 01:23:47;;;;;;;8.40;7.60;;;23.20;47.00;;;;;;5054458;28;20412;-55
2023/06/26 01:26:21;;;;;;;10.40;8.43;;;23.20;47.00;;;;;;5053977;28;20404;-53
2023/06/26 01:28:50;;;;;;;8.80;7.60;;;23.10;47.10;;;;;;5054321;28;20424;-55
2023/06/26 01:31:16;;;;;;;16.30;8.17;;;23.10;47.20;;;;;;5053749;28;21007;-55
2023/06/26 01:33:43;;;;;;;11.80;8.80;;;23.10;47.10;;;;;;5054282;28;20790;-53
2023/06/26 01:36:10;;;;;;;10.67;9.53;;;23.00;47.00;;;;;;5054206;28;20420;-54
2023/06/26 01:38:36;;;;;;;8.97;7.63;;;23.00;47.10;;;;;;5053778;28;20435;-56
2023/06/26 01:41:03;;;;;;;10.00;9.10;;;23.00;47.10;;;;;;5053876;28;21041;-55
2023/06/26 01:43:38;;;;;;;10.23;9.07;;;23.00;47.20;;;;;;5054082;28;20195;-53
2023/06/26 01:46:14;;;;;;;10.17;7.67;;;22.90;47.00;;;;;;5053875;28;20467;-55
2023/06/26 01:49:06;;;;;;;9.73;8.83;;;22.90;47.20;;;;;;5053758;28;20447;-55
2023/06/26 01:52:06;;;;;;;11.17;8.43;;;22.80;47.20;;;;;;5048937;28;20506;-56
2023/06/26 01:54:41;;;;;;;13.20;9.07;;;22.80;47.20;;;;;;5050093;28;20420;-55
2023/06/26 01:57:09;;;;;;;9.50;8.53;;;22.70;47.40;;;;;;5053786;28;20432;-53
2023/06/26 01:59:36;;;;;;;9.70;7.67;;;22.70;47.50;;;;;;5052823;28;20403;-55
2023/06/26 02:02:06;;;;;;;10.07;8.67;;;22.70;47.40;;;;;;5053696;28;20415;-55
2023/06/26 02:04:32;;;;;;;9.60;8.67;;;22.70;47.60;;;;;;5053404;28;20469;-52
2023/06/26 02:06:57;;;;;;;9.33;8.00;;;22.70;47.40;;;;;;5053593;28;20518;-53
2023/06/26 02:09:23;;;;;;;9.70;8.20;;;22.70;47.30;;;;;;5053087;28;20541;-55
2023/06/26 02:11:49;;;;;;;9.33;8.17;;;22.70;47.50;;;;;;5053208;28;20212;-53
2023/06/26 02:14:14;;;;;;;9.80;8.90;;;22.70;47.50;;;;;;5053424;28;20173;-53
2023/06/26 02:16:40;;;;;;;24.90;9.67;;;22.70;47.50;;;;;;5053360;28;20185;-55
2023/06/26 02:19:06;;;;;;;9.37;8.37;;;22.70;47.50;;;;;;5053267;28;20200;-55
2023/06/26 02:21:32;;;;;;;11.47;10.10;;;22.70;47.50;;;;;;5052973;28;20180;-54
2023/06/26 02:23:57;;;;;;;13.50;10.87;;;22.70;47.60;;;;;;5053163;28;20173;-57
2023/06/26 02:26:23;;;;;;;10.73;9.63;;;22.60;47.40;;;;;;5052784;28;20181;-54
2023/06/26 02:28:49;;;;;;;10.50;9.20;;;22.60;47.50;;;;;;5053226;28;20166;-53
2023/06/26 02:31:14;;;;;;;13.53;7.97;;;22.50;47.70;;;;;;5052604;28;20197;-56
2023/06/26 02:33:42;;;;;;;9.50;8.60;;;22.50;47.80;;;;;;5053104;28;20176;-53
2023/06/26 02:36:08;;;;;;;13.27;8.53;;;22.60;47.70;;;;;;5052918;28;20177;-54
2023/06/26 02:38:33;;;;;;;11.00;7.87;;;22.50;47.60;;;;;;5052727;28;20473;-56
2023/06/26 02:40:59;;;;;;;9.90;8.50;;;22.50;47.60;;;;;;5052865;28;20268;-53
2023/06/26 02:43:25;;;;;;;8.90;8.00;;;22.50;47.80;;;;;;5052631;28;20179;-56
2023/06/26 02:45:51;;;;;;;9.70;8.80;;;22.50;47.70;;;;;;5052880;28;20197;-53
2023/06/26 02:48:16;;;;;;;9.03;8.13;;;22.50;47.70;;;;;;5052545;28;20665;-53
2023/06/26 02:50:45;;;;;;;9.63;8.70;;;22.50;47.60;;;;;;5052542;28;20192;-56
2023/06/26 02:53:11;;;;;;;9.67;8.77;;;22.50;47.60;;;;;;5052639;28;20230;-56
2023/06/26 02:55:37;;;;;;;9.00;8.20;;;22.50;47.60;;;;;;5052725;28;20503;-54
2023/06/26 02:58:03;;;;;;;9.30;8.00;;;22.40;47.60;;;;;;5052558;28;20515;-56
2023/06/26 03:00:29;;;;;;;9.93;8.80;;;22.40;47.60;;;;;;5052235;28;20173;-53
2023/06/26 03:02:55;;;;;;;11.23;9.00;;;22.40;47.80;;;;;;5052279;28;20642;-56
2023/06/26 03:05:23;;;;;;;11.17;7.80;;;22.40;47.70;;;;;;5052304;28;20439;-53
2023/06/26 03:07:49;;;;;;;9.00;8.20;;;22.30;47.70;;;;;;5052302;28;20486;-53
2023/06/26 03:10:15;;;;;;;9.37;8.30;;;22.30;47.70;;;;;;5051634;28;20541;-57
2023/06/26 03:12:41;;;;;;;10.27;7.63;;;22.30;47.70;;;;;;5051893;28;20396;-54
2023/06/26 03:15:07;;;;;;;8.93;8.03;;;22.30;47.60;;;;;;5052170;28;20521;-55
2023/06/26 03:17:32;;;;;;;10.60;8.00;;;22.30;47.70;;;;;;5052342;28;20410;-57
2023/06/26 03:19:58;;;;;;;10.47;9.30;;;22.30;47.90;;;;;;5051870;28;21050;-54
2023/06/26 03:22:24;;;;;;;9.47;8.57;;;22.20;47.90;;;;;;5052353;28;20187;-56
2023/06/26 03:24:49;;;;;;;8.60;7.73;;;22.20;48.00;;;;;;5052065;28;20180;-57
2023/06/26 03:27:15;;;;;;;9.70;8.70;;;22.20;47.90;;;;;;5051819;28;20550;-54
2023/06/26 03:29:41;;;;;;;13.20;9.17;;;22.20;48.00;;;;;;5051901;28;20170;-54
2023/06/26 03:32:07;;;;;;;9.63;8.73;;;22.20;48.10;;;;;;5052335;28;20189;-56
2023/06/26 03:34:33;;;;;;;8.33;7.47;;;22.20;48.10;;;;;;5051971;28;20200;-53
2023/06/26 03:36:58;;;;;;;12.30;8.83;;;22.20;48.30;;;;;;5051909;28;20467;-56
2023/06/26 03:39:24;;;;;;;11.00;7.33;;;22.20;48.40;;;;;;5051912;28;20169;-54
2023/06/26 03:41:50;;;;;;;9.00;8.10;;;22.20;48.40;;;;;;5052124;28;20633;-54
2023/06/26 03:44:16;;;;;;;9.30;8.40;;;22.20;48.50;;;;;;5051825;28;20175;-54
2023/06/26 03:46:42;;;;;;;12.60;9.50;;;22.20;48.60;;;;;;5052104;28;20207;-56
2023/06/26 03:49:08;;;;;;;9.07;8.17;;;22.30;48.90;;;;;;5051804;28;20495;-55
2023/06/26 03:51:33;;;;;;;10.40;8.53;;;22.20;48.80;;;;;;5051601;28;20288;-57
2023/06/26 03:53:59;;;;;;;13.47;9.37;;;22.30;48.90;;;;;;5051757;28;20176;-54
2023/06/26 03:56:25;;;;;;;9.73;8.73;;;22.30;49.00;;;;;;5051990;28;20165;-54
2023/06/26 03:58:50;;;;;;;8.10;7.30;;;22.40;49.10;;;;;;5051964;28;20210;-54
2023/06/26 04:01:16;;;;;;;9.73;8.77;;;22.40;48.90;;;;;;5051657;28;20177;-55
2023/06/26 04:03:42;;;;;;;8.80;7.60;;;22.50;49.00;;;;;;5051656;28;20177;-54
2023/06/26 04:06:07;;;;;;;15.40;7.47;;;22.50;48.80;;;;;;5050435;28;20180;-53
2023/06/26 04:08:33;;;;;;;16.93;8.97;;;22.60;48.90;;;;;;5051558;28;20250;-56
2023/06/26 04:10:59;;;;;;;10.53;8.77;;;22.60;48.80;;;;;;5051368;28;20700;-57
2023/06/26 04:13:28;;;;;;;13.43;9.47;;;22.70;48.90;;;;;;5051709;28;20533;-54
2023/06/26 04:15:53;;;;;;;12.60;9.50;;;22.70;48.90;;;;;;5051755;28;20479;-54
2023/06/26 04:18:20;;;;;;;10.63;9.50;;;22.80;48.90;;;;;;5051787;28;20520;-55
2023/06/26 04:21:11;;;;;;;11.93;9.00;;;22.80;48.90;;;;;;5051303;28;20182;-54
2023/06/26 04:23:38;;;;;;;9.27;8.43;;;22.90;48.90;;;;;;5054461;28;20394;-53
2023/06/26 04:26:04;;;;;;;12.70;9.47;;;23.00;48.70;;;;;;5055364;28;20414;-55
2023/06/26 04:28:32;;;;;;;10.33;9.13;;;23.10;48.30;;;;;;5055085;28;21030;-55
2023/06/26 04:30:58;;;;;;;10.30;9.30;;;23.20;48.20;;;;;;5054944;28;20439;-54
2023/06/26 04:33:25;;;;;;;10.97;9.90;;;23.20;48.20;;;;;;5055203;28;20396;-56
2023/06/26 04:35:51;;;;;;;13.97;11.70;;;23.30;48.30;;;;;;5055296;28;20403;-54
2023/06/26 04:38:18;;;;;;;13.73;9.30;;;23.40;48.10;;;;;;5054919;28;20939;-54
2023/06/26 04:40:44;;;;;;;11.57;9.33;;;23.40;47.60;;;;;;5054993;28;20418;-56
2023/06/26 04:43:09;;;;;;;12.20;9.60;;;23.50;47.80;;;;;;5055044;28;20408;-53
2023/06/26 04:45:35;;;;;;;9.77;8.73;;;23.50;47.90;;;;;;5055199;28;20549;-58
2023/06/26 04:48:02;;;;;;;10.63;9.53;;;23.60;47.50;;;;;;5054778;28;21078;-53
2023/06/26 04:50:28;;;;;;;11.27;8.00;;;23.70;47.60;;;;;;5054452;28;20544;-55
2023/06/26 04:52:57;;;;;;;8.70;7.50;;;23.70;47.10;;;;;;5053457;28;20948;-53
2023/06/26 04:55:26;;;;;;;11.60;9.27;;;23.80;47.10;;;;;;5054680;28;20410;-54
2023/06/26 04:57:51;;;;;;;12.90;8.40;;;23.90;46.70;;;;;;5055169;28;20907;-56
2023/06/26 05:00:18;;;;;;;11.70;8.40;;;23.90;47.10;;;;;;5054494;28;20946;-53
2023/06/26 05:02:44;;;;;;;10.40;9.30;;;24.00;46.40;;;;;;5054803;28;20416;-57
2023/06/26 05:05:10;;;;;;;10.33;9.23;;;24.10;46.20;;;;;;5054539;28;20426;-56
2023/06/26 05:07:36;;;;;;;10.97;8.80;;;24.20;45.90;;;;;;5054637;28;20291;-54
2023/06/26 05:10:02;;;;;;;10.43;9.13;;;24.20;45.90;;;;;;5054080;28;20850;-56
2023/06/26 05:12:28;;;;;;;9.53;8.50;;;24.20;45.80;;;;;;5054527;28;20799;-56
2023/06/26 05:14:53;;;;;;;10.90;8.90;;;24.30;46.10;;;;;;5054439;28;20396;-55
2023/06/26 05:17:19;;;;;;;9.13;8.33;;;24.30;46.30;;;;;;5054258;28;20864;-56
2023/06/26 05:19:45;;;;;;;12.03;8.60;;;24.40;46.30;;;;;;5054067;28;20214;-53
2023/06/26 05:22:13;;;;;;;11.33;9.90;;;24.50;45.80;;;;;;5054243;28;20161;-55
2023/06/26 05:24:40;;;;;;;8.70;7.90;;;24.60;45.60;;;;;;5054155;28;20540;-54
2023/06/26 05:27:06;;;;;;;9.50;8.43;;;24.60;45.60;;;;;;5054071;28;20447;-55
2023/06/26 05:29:32;;;;;;;9.43;7.20;;;24.70;45.20;;;;;;5053863;28;20953;-57
2023/06/26 05:31:59;;;;;;;9.10;8.07;;;24.70;45.30;;;;;;5053856;28;20967;-54
2023/06/26 05:34:28;;;;;;;11.20;8.37;;;24.80;45.40;;;;;;5053292;28;20740;-54
2023/06/26 05:36:58;;;;;;;9.43;8.47;;;24.90;45.10;;;;;;5053878;28;20510;-54
2023/06/26 05:39:24;;;;;;;9.57;7.80;;;25.00;45.00;;;;;;5053781;28;20749;-54
2023/06/26 05:41:51;;;;;;;11.30;7.90;;;25.00;44.60;;;;;;5054093;28;20794;-56
2023/06/26 05:44:16;;;;;;;9.00;7.63;;;25.10;44.50;;;;;;5053939;28;20415;-54
2023/06/26 05:46:43;;;;;;;9.17;7.90;;;25.20;44.50;;;;;;5053971;28;20424;-54
2023/06/26 05:49:09;;;;;;;11.03;7.60;;;25.20;43.90;;;;;;5053618;28;20664;-57
2023/06/26 05:51:36;;;;;;;7.93;7.13;;;25.30;42.90;;;;;;5052215;28;20451;-54
2023/06/26 05:54:02;;;;;;;11.60;8.67;;;25.30;43.60;;;;;;5053721;28;20415;-53
2023/06/26 05:56:28;;;;;;;10.30;7.40;;;25.40;44.00;;;;;;5053484;28;20400;-53
2023/06/26 05:58:55;;;;;;;9.87;8.93;;;25.50;43.20;;;;;;5053537;28;20403;-56
2023/06/26 06:01:21;;;;;;;9.70;7.60;;;25.60;42.60;;;;;;5053271;28;20891;-53
2023/06/26 06:03:46;;;;;;;9.57;8.67;;;25.60;42.60;;;;;;5053523;28;20415;-53
2023/06/26 06:06:15;;;;;;;9.73;7.93;;;25.60;43.50;;;;;;5053443;28;20169;-56
2023/06/26 06:08:42;;;;;;;9.87;7.60;;;25.70;42.70;;;;;;5053457;28;20283;-53
2023/06/26 06:11:07;;;;;;;9.00;8.10;;;25.80;42.60;;;;;;5052990;28;20447;-55
2023/06/26 06:13:33;;;;;;;9.17;7.53;;;25.90;42.30;;;;;;5053421;28;20491;-57
2023/06/26 06:15:59;;;;;;;9.03;7.90;;;26.00;42.70;;;;;;5053293;28;20223;-53
2023/06/26 06:18:25;;;;;;;8.90;8.10;;;26.00;42.50;;;;;;5053158;28;20178;-54
2023/06/26 06:20:50;;;;;;;9.17;7.40;;;26.10;43.20;;;;;;5053146;28;20411;-56
2023/06/26 06:23:16;;;;;;;8.23;6.40;;;26.30;42.50;;;;;;5053177;28;20557;-54
2023/06/26 06:25:42;;;;;;;8.73;7.20;;;26.40;42.00;;;;;;5053105;28;20226;-54
2023/06/26 06:28:07;;;;;;;9.37;7.40;;;26.60;42.30;;;;;;5052750;28;20265;-54
2023/06/26 06:30:33;;;;;;;10.53;7.43;;;26.70;42.40;;;;;;5052851;28;20196;-54
2023/06/26 06:32:59;;;;;;;8.90;8.03;;;26.80;42.10;;;;;;5053119;28;20197;-56
2023/06/26 06:35:25;;;;;;;7.80;7.00;;;26.90;41.50;;;;;;5052846;28;20172;-56
2023/06/26 06:37:50;;;;;;;8.27;7.20;;;27.00;42.00;;;;;;5052710;28;20272;-53
2023/06/26 06:40:16;;;;;;;7.80;6.90;;;27.10;42.20;;;;;;5052528;28;20279;-55
2023/06/26 06:42:42;;;;;;;8.53;6.33;;;27.20;41.90;;;;;;5052734;28;20197;-53
2023/06/26 06:45:09;;;;;;;8.13;7.00;;;27.30;39.50;;;;;;5052574;28;20757;-53
2023/06/26 06:47:35;;;;;;;8.03;7.10;;;27.40;39.90;;;;;;5052435;28;20205;-53
2023/06/26 06:50:07;;;;;;;8.60;7.47;;;27.40;40.40;;;;;;5052553;28;20448;-55
2023/06/26 06:52:35;;;;;;;7.10;6.20;;;27.50;39.80;;;;;;5052549;28;20482;-53
2023/06/26 06:55:05;;;;;;;7.50;6.47;;;27.60;39.50;;;;;;5052470;28;20824;-53
2023/06/26 06:57:35;;;;;;;8.37;6.37;;;27.60;39.60;;;;;;5052340;28;20954;-56
2023/06/26 07:00:09;;;;;;;8.83;6.97;;;27.60;39.10;;;;;;5052226;28;20412;-54
2023/06/26 07:02:40;;;;;;;6.67;6.07;;;27.70;39.00;;;;;;5052332;28;20462;-53
2023/06/26 07:05:06;;;;;;;8.27;6.40;;;27.80;39.90;;;;;;5052311;28;20408;-56
2023/06/26 07:07:33;;;;;;;6.03;5.43;;;27.90;39.60;;;;;;5052312;28;21001;-54
2023/06/26 07:10:04;;;;;;;8.20;6.80;;;28.00;39.00;;;;;;5051884;28;20474;-53
2023/06/26 07:12:30;;;;;;;7.33;6.43;;;28.10;39.10;;;;;;5052232;28;20820;-54
2023/06/26 07:14:56;;;;;;;8.23;6.60;;;28.20;39.10;;;;;;5052256;28;20488;-54
2023/06/26 07:17:22;;;;;;;10.40;7.20;;;28.30;38.50;;;;;;5052099;28;20181;-55
2023/06/26 07:19:49;;;;;;;6.97;6.37;;;28.40;38.00;;;;;;5052033;28;20415;-53
2023/06/26 07:22:16;;;;;;;7.37;6.40;;;28.50;38.40;;;;;;5052134;28;20545;-56
2023/06/26 07:24:42;;;;;;;7.00;6.33;;;28.50;37.90;;;;;;5052131;28;20404;-56
2023/06/26 07:27:07;;;;;;;8.30;6.10;;;28.50;38.50;;;;;;5052014;28;20539;-53
2023/06/26 07:29:33;;;;;;;7.00;6.13;;;28.60;37.90;;;;;;5051916;28;20407;-56
2023/06/26 07:31:59;;;;;;;7.33;5.57;;;28.80;37.50;;;;;;5052216;28;20242;-55
2023/06/26 07:34:24;;;;;;;7.40;6.27;;;28.80;37.50;;;;;;5051979;28;20169;-52
2023/06/26 07:36:50;;;;;;;12.27;5.93;;;28.90;37.40;;;;;;5051932;28;20193;-55
2023/06/26 07:39:16;;;;;;;6.90;6.20;;;29.00;38.20;;;;;;5051635;28;20169;-55
2023/06/26 07:41:42;;;;;;;6.27;5.67;;;29.10;38.00;;;;;;5051941;28;20641;-53
2023/06/26 07:44:07;;;;;;;8.50;7.63;;;29.20;37.90;;;;;;5051843;28;20180;-55
2023/06/26 07:46:33;;;;;;;7.57;5.67;;;29.40;37.40;;;;;;5052098;28;20177;-55
2023/06/26 07:48:59;;;;;;;6.33;5.63;;;29.50;37.80;;;;;;5051773;28;20526;-55
2023/06/26 07:51:25;;;;;;;5.90;5.40;;;29.70;37.40;;;;;;5051540;28;20240;-55
2023/06/26 07:53:50;;;;;;;7.33;6.50;;;29.80;36.60;;;;;;5051666;28;20172;-54
2023/06/26 07:56:16;;;;;;;13.60;7.10;;;30.00;36.90;;;;;;5051836;28;20173;-56
2023/06/26 07:58:42;;;;;;;9.00;6.17;;;30.10;36.20;;;;;;5055029;28;20565;-53
2023/06/26 08:01:07;;;;;;;8.03;6.90;;;30.10;37.10;;;;;;5055637;28;20173;-53
2023/06/26 08:03:33;;;;;;;8.80;7.17;;;30.20;36.70;;;;;;5055784;28;20167;-56
2023/06/26 08:05:59;;;;;;;6.87;5.67;;;30.30;35.90;;;;;;5055807;28;20253;-53
2023/06/26 08:08:25;;;;;;;7.60;6.77;;;30.30;36.30;;;;;;5040564;28;20200;-54
2023/06/26 08:10:51;;;;;;;6.70;5.70;;;30.40;36.20;;;;;;5034060;28;21010;-53
2023/06/26 08:13:16;;;;;;;7.73;6.80;;;30.60;36.70;;;;;;5035595;28;20180;-53
2023/06/26 08:15:42;;;;;;;6.87;6.10;;;30.60;35.10;;;;;;5035704;28;20210;-56
2023/06/26 08:18:08;;;;;;;7.07;6.37;;;30.70;35.30;;;;;;5035495;28;20269;-53
2023/06/26 08:20:36;;;;;;;9.10;6.87;;;30.80;35.40;;;;;;5035277;28;20181;-53
2023/06/26 08:23:03;;;;;;;8.17;7.07;;;30.90;35.70;;;;;;5035374;28;20715;-56
2023/06/26 08:25:29;;;;;;;8.40;7.50;;;31.00;35.90;;;;;;5035602;28;20418;-54
2023/06/26 08:27:55;;;;;;;7.03;6.20;;;31.00;35.40;;;;;;5035129;28;20456;-53
2023/06/26 08:30:21;;;;;;;8.40;7.17;;;31.10;35.00;;;;;;5035088;28;20208;-54
2023/06/26 08:32:47;;;;;;;7.63;6.83;;;31.10;33.90;;;;;;5035259;28;20404;-56
2023/06/26 08:35:14;;;;;;;10.20;7.30;;;31.10;33.90;;;;;;5035440;28;20418;-53
2023/06/26 08:37:39;;;;;;;7.67;6.80;;;31.20;34.00;;;;;;5035269;28;20463;-55
2023/06/26 08:40:06;;;;;;;7.87;7.07;;;31.30;34.60;;;;;;5034940;28;20466;-53
2023/06/26 08:42:32;;;;;;;6.67;6.00;;;31.40;34.00;;;;;;5035034;28;20174;-55
2023/06/26 08:44:58;;;;;;;7.90;7.10;;;31.40;33.30;;;;;;5035301;28;20416;-55
2023/06/26 08:47:25;;;;;;;7.30;6.60;;;31.50;33.20;;;;;;5034878;28;20205;-54
2023/06/26 08:50:06;;;;;;;6.93;6.23;;;31.50;32.70;;;;;;5034707;28;20224;-55
2023/06/26 08:53:09;;;;;;;12.20;7.30;;;31.60;34.00;;;;;;5034856;28;20400;-54
2023/06/26 08:55:40;;;;;;;8.03;6.53;;;31.70;33.70;;;;;;4999674;28;20474;-53
2023/06/26 08:58:06;;;;;;;9.53;7.70;;;31.70;32.50;;;;;;5035069;28;20494;-55
2023/06/26 09:00:32;;;;;;;7.67;6.97;;;31.80;32.60;;;;;;5034526;28;20812;-53
2023/06/26 09:02:59;;;;;;;7.57;6.83;;;31.90;33.00;;;;;;5035084;28;20444;-53
2023/06/26 09:05:31;;;;;;;8.10;7.13;;;32.00;31.50;;;;;;5034828;28;20467;-55
2023/06/26 09:07:57;;;;;;;7.27;6.27;;;32.00;31.50;;;;;;5034563;28;20425;-55
2023/06/26 09:10:23;;;;;;;12.73;7.73;;;32.00;31.80;;;;;;5033318;28;20479;-57
2023/06/26 09:12:49;;;;;;;7.63;6.83;;;32.10;32.30;;;;;;5034618;28;20459;-55
2023/06/26 09:15:16;;;;;;;9.90;6.10;;;32.10;31.90;;;;;;5034777;28;20240;-55
2023/06/26 09:17:42;;;;;;;7.60;6.90;;;32.20;31.40;;;;;;5034432;28;20503;-54
2023/06/26 09:20:10;;;;;;;7.90;7.20;;;32.20;31.90;;;;;;5034184;28;20484;-54
2023/06/26 09:22:41;;;;;;;11.50;6.93;;;32.20;33.60;;;;;;5034256;28;20580;-54
2023/06/26 09:25:08;;;;;;;6.87;6.20;;;32.30;32.00;;;;;;5034589;28;20443;-54
2023/06/26 09:27:37;;;;;;;9.23;5.53;;;32.40;32.10;;;;;;5034023;28;20653;-56
2023/06/26 09:30:03;;;;;;;7.53;6.83;;;32.50;31.80;;;;;;5033886;28;20495;-54
2023/06/26 09:32:29;;;;;;;8.23;7.20;;;32.60;32.30;;;;;;5034465;28;20497;-54
2023/06/26 09:35:00;;;;;;;7.97;7.17;;;32.70;30.60;;;;;;5034348;28;20831;-54
2023/06/26 09:37:26;;;;;;;7.43;6.77;;;32.80;31.80;;;;;;5034116;28;20441;-56
2023/06/26 09:39:52;;;;;;;9.23;6.57;;;32.80;31.60;;;;;;5033781;28;20923;-56
2023/06/26 09:42:19;;;;;;;9.80;6.73;;;32.90;32.00;;;;;;5034193;28;20413;-53
2023/06/26 09:44:46;;;;;;;8.50;6.63;;;33.00;31.50;;;;;;5034075;28;20960;-55
2023/06/26 09:47:12;;;;;;;7.10;6.07;;;33.10;31.70;;;;;;5033876;28;20432;-55
2023/06/26 09:49:45;;;;;;;9.30;7.43;;;33.20;31.50;;;;;;5033807;28;20814;-53
2023/06/26 09:52:17;;;;;;;7.90;6.80;;;33.30;31.60;;;;;;5034020;28;20409;-57
2023/06/26 09:54:44;;;;;;;8.10;7.00;;;33.30;30.60;;;;;;5033708;28;20409;-55
2023/06/26 09:57:18;;;;;;;8.57;6.60;;;33.30;31.20;;;;;;5033813;28;20500;-54
2023/06/26 09:59:48;;;;;;;6.60;6.00;;;33.40;32.40;;;;;;5033584;28;20558;-54
2023/06/26 10:02:13;;;;;;;7.57;6.40;;;33.40;29.30;;;;;;5033544;28;20401;-54
2023/06/26 10:04:39;;;;;;;8.10;6.20;;;33.40;29.20;;;;;;5033541;28;20398;-55
2023/06/26 10:07:08;;;;;;;6.77;5.43;;;33.50;30.00;;;;;;5033663;28;20190;-54
2023/06/26 10:09:40;;;;;;;7.20;6.50;;;33.60;30.20;;;;;;5033240;28;20177;-54
2023/06/26 10:12:19;;;;;;;6.37;5.77;;;33.70;29.00;;;;;;5033473;28;20510;-56
2023/06/26 10:14:45;;;;;;;6.10;5.50;;;33.80;29.10;;;;;;5033488;28;20409;-53
2023/06/26 10:17:16;;;;;;;8.47;6.63;;;33.90;29.80;;;;;;5033154;28;20459;-52
2023/06/26 10:19:44;;;;;;;6.57;5.97;;;34.00;29.50;;;;;;5032747;28;20401;-53
2023/06/26 10:22:14;;;;;;;7.40;6.60;;;34.10;28.20;;;;;;5033168;28;20432;-55
2023/06/26 10:24:41;;;;;;;7.63;5.40;;;34.10;28.30;;;;;;5033079;28;20417;-56
2023/06/26 10:27:29;;;;;;;7.07;5.70;;;34.10;27.00;;;;;;5033127;28;20485;-52
2023/06/26 10:29:58;;;;;;;6.37;5.80;;;34.20;27.80;;;;;;5032775;28;20468;-56
2023/06/26 10:32:27;;;;;;;7.00;6.30;;;34.20;28.80;;;;;;5033253;28;20794;-55
2023/06/26 10:34:55;;;;;;;7.43;5.90;;;34.30;29.00;;;;;;5032940;28;20409;-53
2023/06/26 10:37:21;;;;;;;6.83;6.23;;;34.30;28.10;;;;;;5032993;28;20780;-55
2023/06/26 10:39:51;;;;;;;6.73;6.03;;;34.30;28.60;;;;;;5032562;28;20889;-55
2023/06/26 10:42:19;;;;;;;7.30;6.60;;;34.50;30.80;;;;;;5032848;28;20495;-52
2023/06/26 10:44:46;;;;;;;7.13;6.07;;;34.40;28.90;;;;;;5031481;28;20417;-53
2023/06/26 10:47:35;;;;;;;6.60;6.00;;;34.40;28.30;;;;;;5033018;28;20432;-55
2023/06/26 10:50:26;;;;;;;8.03;7.17;;;34.40;28.90;;;;;;5032441;28;20393;-55
2023/06/26 10:53:09;;;;;;;7.90;6.67;;;34.40;28.30;;;;;;5032860;28;20409;-55
2023/06/26 10:55:35;;;;;;;6.77;6.07;;;34.50;29.00;;;;;;5032595;28;20402;-55
2023/06/26 10:58:02;;;;;;;7.97;5.80;;;34.50;29.40;;;;;;5032513;28;20492;-55
2023/06/26 11:00:29;;;;;;;6.10;5.50;;;34.50;27.80;;;;;;5032618;28;20516;-55
2023/06/26 11:02:54;;;;;;;7.30;6.17;;;34.60;27.10;;;;;;5032440;28;20404;-55
2023/06/26 11:05:33;;;;;;;7.60;6.57;;;34.60;27.20;;;;;;5032417;28;20484;-53
2023/06/26 11:08:07;;;;;;;8.00;7.20;;;34.80;28.00;;;;;;5032564;28;20195;-55
2023/06/26 11:10:53;;;;;;;6.53;5.93;;;34.70;27.90;;;;;;5032525;28;20438;-58
2023/06/26 11:13:20;;;;;;;7.80;7.00;;;34.60;27.20;;;;;;5032517;28;20423;-58
2023/06/26 11:15:46;;;;;;;6.53;5.87;;;34.50;27.90;;;;;;5032392;28;20405;-55
2023/06/26 11:18:13;;;;;;;6.90;6.20;;;34.60;27.10;;;;;;5032208;28;20420;-55
2023/06/26 11:20:39;;;;;;;8.03;6.00;;;34.60;29.20;;;;;;5032426;28;20593;-57
2023/06/26 11:23:08;;;;;;;8.73;5.90;;;34.60;27.40;;;;;;5032452;28;20507;-55
2023/06/26 11:25:38;;;;;;;8.33;6.20;;;34.60;29.40;;;;;;5032232;28;20419;-56
2023/06/26 11:28:05;;;;;;;9.80;6.80;;;34.80;28.90;;;;;;5032412;28;20820;-57
2023/06/26 11:30:31;;;;;;;7.13;6.47;;;34.90;27.80;;;;;;5031816;28;20468;-54
2023/06/26 11:33:08;;;;;;;6.30;5.33;;;34.90;27.00;;;;;;5031843;28;20730;-54
2023/06/26 11:35:35;;;;;;;7.50;5.50;;;35.00;27.90;;;;;;5032210;28;20894;-57
2023/06/26 11:38:05;;;;;;;6.80;5.83;;;35.10;28.10;;;;;;5032278;28;20800;-54
2023/06/26 11:40:35;;;;;;;7.20;6.50;;;35.20;26.80;;;;;;5030841;28;20441;-56
2023/06/26 11:43:03;;;;;;;6.33;5.73;;;35.30;27.30;;;;;;5032188;28;20777;-56
2023/06/26 11:45:30;;;;;;;6.33;5.70;;;35.40;30.00;;;;;;5032231;28;20411;-55
2023/06/26 11:47:59;;;;;;;6.63;5.40;;;35.40;27.00;;;;;;5031962;28;20800;-54
2023/06/26 11:50:26;;;;;;;6.90;6.00;;;35.50;26.00;;;;;;5031640;28;20959;-54
2023/06/26 11:52:57;;;;;;;6.37;5.77;;;35.50;25.90;;;;;;5031867;28;20404;-56
2023/06/26 11:55:24;;;;;;;6.17;5.57;;;35.60;25.70;;;;;;5032277;28;20396;-57
2023/06/26 11:57:52;;;;;;;6.40;5.80;;;35.60;25.00;;;;;;5032122;28;20423;-54
2023/06/26 12:00:19;;;;;;;6.70;6.10;;;35.60;26.80;;;;;;5031760;28;20407;-54
2023/06/26 12:02:49;;;;;;;8.70;6.00;;;35.80;25.80;;;;;;5031977;28;20494;-56
2023/06/26 12:05:16;;;;;;;6.90;6.20;;;35.80;26.40;;;;;;5031889;28;20519;-54
2023/06/26 12:07:43;;;;;;;10.13;6.47;;;35.70;26.20;;;;;;5032006;28;20428;-57
2023/06/26 12:10:11;;;;;;;6.97;6.30;;;35.60;26.90;;;;;;5031867;28;20810;-54
2023/06/26 12:12:38;;;;;;;8.20;5.73;;;35.60;26.70;;;;;;5031989;28;20410;-54
2023/06/26 12:15:05;;;;;;;6.50;5.90;;;35.60;27.20;;;;;;5031908;28;20924;-56
2023/06/26 12:17:31;;;;;;;6.30;5.70;;;35.70;27.80;;;;;;5031614;28;20424;-54
2023/06/26 12:19:57;;;;;;;6.37;5.77;;;35.80;24.90;;;;;;5031560;28;20405;-54
2023/06/26 12:22:22;;;;;;;6.47;5.90;;;35.80;28.00;;;;;;5031951;28;20178;-56
2023/06/26 12:24:48;;;;;;;6.20;5.60;;;35.90;27.70;;;;;;5031710;28;20594;-56
2023/06/26 12:27:16;;;;;;;6.33;5.70;;;35.90;26.00;;;;;;5031702;28;20268;-56
2023/06/26 12:29:51;;;;;;;6.47;5.87;;;36.00;27.30;;;;;;5031532;28;20191;-56
2023/06/26 12:32:17;;;;;;;5.50;5.00;;;36.00;27.70;;;;;;5031725;28;20773;-55
2023/06/26 12:34:49;;;;;;;10.17;5.93;;;35.90;24.30;;;;;;5031780;28;20919;-55
2023/06/26 12:37:16;;;;;;;6.57;5.97;;;35.70;25.80;;;;;;5031539;28;20604;-57
2023/06/26 12:39:51;;;;;;;6.40;5.70;;;35.70;25.60;;;;;;5031312;28;20895;-55
2023/06/26 12:42:24;;;;;;;11.03;6.07;;;35.80;25.80;;;;;;5031772;28;20748;-55
2023/06/26 12:44:50;;;;;;;8.30;6.53;;;35.90;28.70;;;;;;5034691;28;20897;-58